Time;durP1;ratioP1;P1;durP2;ratioP2;P2;SDS_P1;SDS_P2;PMS_P1;PMS_P2;Temp;Humidity;BMP_temperature;BMP_pressure;BME280_temperature;BME280_humidity;BME280_pressure;Samples;Min_cycle;Max_cycle;Signal;HPM_P1;HPM_P2
2022/09/22 00:01:08;;;;;;;5.57;2.15;;;6.40;99.90;;;;;;5082194;28;20040;-62
2022/09/22 00:03:36;;;;;;;6.32;2.50;;;6.30;99.90;;;;;;5075162;28;20576;-62
2022/09/22 00:06:14;;;;;;;4.35;2.20;;;6.30;99.90;;;;;;5079555;28;20455;-62
2022/09/22 00:08:42;;;;;;;6.15;2.25;;;6.30;99.90;;;;;;5079020;28;20043;-62
2022/09/22 00:11:19;;;;;;;5.25;2.22;;;6.30;99.90;;;;;;5087505;28;20078;-62
2022/09/22 00:13:51;;;;;;;5.63;2.03;;;6.40;99.90;;;;;;5085514;28;20093;-62
2022/09/22 00:16:19;;;;;;;4.30;2.30;;;6.30;99.90;;;;;;5082860;28;20059;-62
2022/09/22 00:18:45;;;;;;;2.90;1.85;;;6.30;99.90;;;;;;5087285;28;20032;-62
2022/09/22 00:21:13;;;;;;;2.92;1.90;;;6.20;99.90;;;;;;5077993;28;20390;-62
2022/09/22 00:23:41;;;;;;;8.68;2.42;;;6.30;99.90;;;;;;5083772;28;20047;-62
2022/09/22 00:26:09;;;;;;;5.03;2.10;;;6.30;99.90;;;;;;5089060;28;20108;-62
2022/09/22 00:28:37;;;;;;;4.30;2.00;;;6.30;99.90;;;;;;5084440;28;20064;-62
2022/09/22 00:31:04;;;;;;;6.18;2.38;;;6.30;99.90;;;;;;5086125;28;20044;-63
2022/09/22 00:33:29;;;;;;;5.72;2.45;;;6.20;99.90;;;;;;5079858;28;20051;-62
2022/09/22 00:35:59;;;;;;;4.95;2.08;;;6.30;99.90;;;;;;5079500;28;20040;-61
2022/09/22 00:38:25;;;;;;;4.13;2.08;;;6.20;99.90;;;;;;5080878;28;20032;-62
2022/09/22 00:40:51;;;;;;;2.33;1.80;;;6.20;99.90;;;;;;5088366;28;20474;-62
2022/09/22 00:43:24;;;;;;;4.63;1.83;;;6.10;99.90;;;;;;5085018;28;20131;-62
2022/09/22 00:46:13;;;;;;;2.90;1.90;;;6.10;99.90;;;;;;5085411;28;20092;-62
2022/09/22 00:48:46;;;;;;;6.05;2.50;;;6.00;99.90;;;;;;5084390;28;20047;-62
2022/09/22 00:51:15;;;;;;;5.72;1.88;;;5.90;99.90;;;;;;5084195;28;20028;-61
2022/09/22 00:53:41;;;;;;;3.17;1.83;;;5.90;99.90;;;;;;5082993;28;20047;-61
2022/09/22 00:56:13;;;;;;;4.47;1.90;;;5.90;99.90;;;;;;5083321;28;20051;-62
2022/09/22 00:58:47;;;;;;;4.30;1.77;;;5.80;99.90;;;;;;5086718;28;20101;-62
2022/09/22 01:01:14;;;;;;;4.30;2.35;;;5.80;99.90;;;;;;5085260;28;20305;-62
2022/09/22 01:03:41;;;;;;;3.78;2.08;;;5.80;99.90;;;;;;5078874;28;20097;-62
2022/09/22 01:06:11;;;;;;;4.38;2.42;;;5.70;99.90;;;;;;5087382;28;20042;-62
2022/09/22 01:08:39;;;;;;;3.97;2.20;;;5.80;99.90;;;;;;5077222;28;20086;-62
2022/09/22 01:11:06;;;;;;;6.43;2.60;;;5.70;99.90;;;;;;5083184;28;20032;-62
2022/09/22 01:13:37;;;;;;;4.40;2.53;;;5.70;99.90;;;;;;5081316;28;20064;-62
2022/09/22 01:16:21;;;;;;;5.53;2.90;;;5.70;99.90;;;;;;5087510;28;20476;-62
2022/09/22 01:19:16;;;;;;;4.50;2.20;;;5.70;99.90;;;;;;5083876;28;20078;-62
2022/09/22 01:21:50;;;;;;;4.70;2.25;;;5.60;99.90;;;;;;5086195;28;20051;-62
2022/09/22 01:24:24;;;;;;;3.88;2.92;;;5.60;99.90;;;;;;5081000;28;20040;-62
2022/09/22 01:27:13;;;;;;;5.25;2.58;;;5.60;99.90;;;;;;5082827;28;20075;-62
2022/09/22 01:30:10;;;;;;;5.47;2.83;;;5.50;99.90;;;;;;5086605;28;22561;-62
2022/09/22 01:32:41;;;;;;;5.15;2.25;;;5.50;99.90;;;;;;5079800;28;20441;-62
2022/09/22 01:35:15;;;;;;;3.15;2.42;;;5.50;99.90;;;;;;5082888;28;20032;-62
2022/09/22 01:37:44;;;;;;;5.78;2.55;;;5.50;99.90;;;;;;5084042;28;20078;-62
2022/09/22 01:40:31;;;;;;;3.00;2.38;;;5.50;99.90;;;;;;5086672;28;20056;-62
2022/09/22 01:43:37;;;;;;;4.35;2.20;;;5.60;99.90;;;;;;5081654;28;20120;-62
2022/09/22 01:46:13;;;;;;;6.88;2.90;;;5.50;99.90;;;;;;5081330;28;20040;-62
2022/09/22 01:48:42;;;;;;;4.78;2.53;;;5.60;99.90;;;;;;5076925;28;20426;-62
2022/09/22 01:51:15;;;;;;;5.80;2.25;;;5.60;99.90;;;;;;5079176;28;20036;-62
2022/09/22 01:53:50;;;;;;;4.43;2.35;;;5.60;99.90;;;;;;5081449;28;20048;-62
2022/09/22 01:56:18;;;;;;;5.25;2.00;;;5.60;99.90;;;;;;5080588;28;20044;-62
2022/09/22 01:58:51;;;;;;;5.22;2.22;;;5.50;99.90;;;;;;5087755;28;20042;-62
2022/09/22 02:01:21;;;;;;;4.20;2.08;;;5.50;99.90;;;;;;5084326;28;20032;-61
2022/09/22 02:04:08;;;;;;;5.13;2.40;;;5.50;99.90;;;;;;5083379;28;20453;-62
2022/09/22 02:06:41;;;;;;;2.90;1.90;;;5.40;99.90;;;;;;5081244;28;20631;-62
2022/09/22 02:09:10;;;;;;;5.43;2.67;;;5.40;99.90;;;;;;5079408;28;20032;-62
2022/09/22 02:11:36;;;;;;;4.85;2.60;;;5.40;99.90;;;;;;5087260;28;20055;-62
2022/09/22 02:14:03;;;;;;;6.70;2.60;;;5.40;99.90;;;;;;5086822;28;20076;-62
2022/09/22 02:16:29;;;;;;;4.80;2.30;;;5.40;99.90;;;;;;5087584;28;20032;-62
2022/09/22 02:19:16;;;;;;;3.88;2.22;;;5.40;99.90;;;;;;5083609;28;20040;-62
2022/09/22 02:21:44;;;;;;;3.05;2.25;;;5.40;99.90;;;;;;5072260;28;20119;-62
2022/09/22 02:24:34;;;;;;;4.28;2.40;;;5.40;99.90;;;;;;5078641;28;20047;-62
2022/09/22 02:27:08;;;;;;;4.15;2.08;;;5.30;99.90;;;;;;5082424;28;20028;-62
2022/09/22 02:29:38;;;;;;;5.53;2.47;;;5.30;99.90;;;;;;5084272;28;20036;-61
2022/09/22 02:32:07;;;;;;;4.63;1.90;;;5.20;99.90;;;;;;5086110;28;20124;-63
2022/09/22 02:34:33;;;;;;;3.55;2.00;;;5.20;99.90;;;;;;5080537;28;20575;-61
2022/09/22 02:37:14;;;;;;;6.18;2.30;;;5.20;99.90;;;;;;5080122;28;20032;-62
2022/09/22 02:40:04;;;;;;;2.90;2.15;;;5.20;99.90;;;;;;5081789;28;20038;-62
2022/09/22 02:42:39;;;;;;;5.15;2.03;;;5.20;99.90;;;;;;5081503;28;20476;-61
2022/09/22 02:45:15;;;;;;;2.92;1.88;;;5.20;99.90;;;;;;5078153;28;20044;-62
2022/09/22 02:47:51;;;;;;;4.00;2.10;;;5.20;99.90;;;;;;5083872;28;20063;-61
2022/09/22 02:50:20;;;;;;;3.70;1.80;;;5.10;99.90;;;;;;5079259;28;20060;-61
2022/09/22 02:52:49;;;;;;;3.35;1.63;;;5.10;99.90;;;;;;5084282;28;20773;-62
2022/09/22 02:55:16;;;;;;;3.08;2.13;;;5.10;99.90;;;;;;5083564;28;20036;-62
2022/09/22 02:57:42;;;;;;;7.38;2.38;;;5.00;99.90;;;;;;5084785;28;20498;-62
2022/09/22 03:00:09;;;;;;;3.38;2.10;;;5.10;99.90;;;;;;5082240;28;20051;-62
2022/09/22 03:02:34;;;;;;;3.75;2.08;;;5.00;99.90;;;;;;5084491;28;20497;-61
2022/09/22 03:05:00;;;;;;;5.85;2.08;;;5.00;99.90;;;;;;5074585;28;20056;-62
2022/09/22 03:07:26;;;;;;;3.83;1.95;;;5.00;99.90;;;;;;5082566;28;20072;-62
2022/09/22 03:09:51;;;;;;;5.18;1.95;;;4.90;99.90;;;;;;5077534;28;20414;-62
2022/09/22 03:12:17;;;;;;;4.35;2.17;;;4.90;99.90;;;;;;5084485;28;20141;-62
2022/09/22 03:14:43;;;;;;;2.75;1.73;;;4.90;99.90;;;;;;5085721;28;20036;-62
2022/09/22 03:17:08;;;;;;;4.78;2.10;;;4.90;99.90;;;;;;5085431;28;20044;-62
2022/09/22 03:19:34;;;;;;;5.25;1.77;;;4.90;99.90;;;;;;5081863;28;20039;-62
2022/09/22 03:21:59;;;;;;;4.20;2.17;;;4.90;99.90;;;;;;5081220;28;20729;-62
2022/09/22 03:24:25;;;;;;;5.30;2.03;;;4.90;99.90;;;;;;5080247;28;20527;-62
2022/09/22 03:26:51;;;;;;;4.78;2.05;;;4.90;99.90;;;;;;5080450;28;20046;-62
2022/09/22 03:29:16;;;;;;;4.55;2.35;;;4.90;99.90;;;;;;5083606;28;20039;-62
2022/09/22 03:31:42;;;;;;;4.53;2.45;;;4.90;99.90;;;;;;5082829;28;20040;-61
2022/09/22 03:34:07;;;;;;;3.50;2.45;;;4.90;99.90;;;;;;5079732;28;20429;-62
2022/09/22 03:36:33;;;;;;;4.75;2.30;;;4.80;99.90;;;;;;5089317;28;20620;-62
2022/09/22 03:38:59;;;;;;;5.28;1.98;;;4.90;99.90;;;;;;5075672;28;20114;-62
2022/09/22 03:41:25;;;;;;;3.17;2.08;;;4.80;99.90;;;;;;5080752;28;20024;-62
2022/09/22 03:43:50;;;;;;;4.78;2.33;;;4.80;99.90;;;;;;5086977;28;20072;-61
2022/09/22 03:46:16;;;;;;;4.90;2.03;;;4.80;99.90;;;;;;5089089;28;20067;-61
2022/09/22 03:48:41;;;;;;;5.00;2.65;;;4.80;99.90;;;;;;5090599;28;20040;-62
2022/09/22 03:51:07;;;;;;;3.35;2.00;;;4.80;99.90;;;;;;5088428;28;20031;-61
2022/09/22 03:53:33;;;;;;;3.67;1.92;;;4.80;99.90;;;;;;5086594;28;20545;-62
2022/09/22 03:56:10;;;;;;;7.82;2.30;;;4.80;99.90;;;;;;5081526;28;20063;-62
2022/09/22 03:58:36;;;;;;;5.63;3.42;;;4.80;99.90;;;;;;5079939;28;20458;-62
2022/09/22 04:01:03;;;;;;;3.40;2.00;;;4.70;99.90;;;;;;5079360;28;20035;-61
2022/09/22 04:03:29;;;;;;;3.15;1.83;;;4.70;99.90;;;;;;5079698;28;20489;-62
2022/09/22 04:05:55;;;;;;;3.70;2.20;;;4.80;99.90;;;;;;5082525;28;20451;-62
2022/09/22 04:08:21;;;;;;;5.10;2.17;;;4.80;99.90;;;;;;5083474;28;20094;-62
2022/09/22 04:10:46;;;;;;;3.72;1.85;;;4.70;99.90;;;;;;5085714;28;20032;-61
2022/09/22 04:13:13;;;;;;;3.65;2.35;;;4.70;99.90;;;;;;5089091;28;20036;-62
2022/09/22 04:15:39;;;;;;;5.55;2.78;;;4.70;99.90;;;;;;5089625;28;20072;-61
2022/09/22 04:18:04;;;;;;;3.03;2.10;;;4.70;99.90;;;;;;5084066;28;20058;-62
2022/09/22 04:20:30;;;;;;;4.22;2.08;;;4.60;99.90;;;;;;5085305;28;20203;-61
2022/09/22 04:22:56;;;;;;;3.17;1.85;;;4.60;99.90;;;;;;5080771;28;20032;-62
2022/09/22 04:25:22;;;;;;;3.75;2.28;;;4.60;99.90;;;;;;5086028;28;20082;-61
2022/09/22 04:27:47;;;;;;;3.63;1.95;;;4.60;99.90;;;;;;5082549;28;20459;-62
2022/09/22 04:30:13;;;;;;;4.03;2.00;;;4.60;99.90;;;;;;5080730;28;20036;-62
2022/09/22 04:32:39;;;;;;;3.03;2.33;;;4.60;99.90;;;;;;5088071;28;20040;-62
2022/09/22 04:35:05;;;;;;;2.78;2.08;;;4.60;99.90;;;;;;5086973;28;20452;-61
2022/09/22 04:37:31;;;;;;;7.15;2.50;;;4.60;99.90;;;;;;5078939;28;20089;-62
2022/09/22 04:39:58;;;;;;;4.65;2.25;;;4.60;99.90;;;;;;5085412;28;20040;-62
2022/09/22 04:42:24;;;;;;;5.25;2.50;;;4.50;99.90;;;;;;5079885;28;20048;-61
2022/09/22 04:44:49;;;;;;;4.47;2.42;;;4.60;99.90;;;;;;5087574;28;20040;-61
2022/09/22 04:47:15;;;;;;;3.83;1.92;;;4.60;99.90;;;;;;5081400;28;20040;-62
2022/09/22 04:49:40;;;;;;;2.60;2.00;;;4.50;99.90;;;;;;5086769;28;20054;-62
2022/09/22 04:52:06;;;;;;;4.97;2.10;;;4.50;99.90;;;;;;5081982;28;20040;-62
2022/09/22 04:54:32;;;;;;;5.47;2.30;;;4.50;99.90;;;;;;5085446;28;20122;-62
2022/09/22 04:56:57;;;;;;;4.07;2.00;;;4.50;99.90;;;;;;5083768;28;20040;-61
2022/09/22 04:59:23;;;;;;;3.33;2.05;;;4.40;99.90;;;;;;5089611;28;20130;-62
2022/09/22 05:01:48;;;;;;;4.38;2.00;;;4.40;99.90;;;;;;5085370;28;20059;-62
2022/09/22 05:04:14;;;;;;;5.18;2.15;;;4.40;99.90;;;;;;5081100;28;20403;-62
2022/09/22 05:06:40;;;;;;;4.53;2.50;;;4.40;99.90;;;;;;5090348;28;20043;-62
2022/09/22 05:09:06;;;;;;;5.72;2.60;;;4.40;99.90;;;;;;5077543;28;20443;-61
2022/09/22 05:11:32;;;;;;;5.57;2.67;;;4.40;99.90;;;;;;5083288;28;20075;-62
2022/09/22 05:13:58;;;;;;;4.20;2.30;;;4.30;99.90;;;;;;5083346;28;20544;-61
2022/09/22 05:16:24;;;;;;;4.35;3.10;;;4.30;99.90;;;;;;5088329;28;20151;-62
2022/09/22 05:18:50;;;;;;;3.15;2.72;;;4.30;99.90;;;;;;5085969;28;20087;-62
2022/09/22 05:21:17;;;;;;;3.72;2.72;;;4.30;99.90;;;;;;5088114;28;20040;-62
2022/09/22 05:23:43;;;;;;;6.93;2.90;;;4.30;99.90;;;;;;5088773;28;20402;-61
2022/09/22 05:26:10;;;;;;;2.95;2.45;;;4.40;99.90;;;;;;5083630;28;20476;-61
2022/09/22 05:28:35;;;;;;;4.32;2.90;;;4.40;99.90;;;;;;5086343;28;20467;-62
2022/09/22 05:31:01;;;;;;;4.38;3.03;;;4.30;99.90;;;;;;5085636;28;20096;-62
2022/09/22 05:33:27;;;;;;;6.13;3.13;;;4.40;99.90;;;;;;5082010;28;20518;-61
2022/09/22 05:35:52;;;;;;;3.38;2.85;;;4.30;99.90;;;;;;5075196;28;20035;-62
2022/09/22 05:38:18;;;;;;;4.15;3.17;;;4.40;99.90;;;;;;5084068;28;20789;-62
2022/09/22 05:40:46;;;;;;;5.05;3.00;;;4.30;99.90;;;;;;5086152;28;20131;-61
2022/09/22 05:43:11;;;;;;;6.50;3.75;;;4.40;99.90;;;;;;5081012;28;20037;-61
2022/09/22 05:45:37;;;;;;;5.50;3.55;;;4.40;99.90;;;;;;5085330;28;20059;-62
2022/09/22 05:48:03;;;;;;;6.75;3.53;;;4.40;99.90;;;;;;5080306;28;20068;-62
2022/09/22 05:50:29;;;;;;;5.47;3.10;;;4.50;99.90;;;;;;5078080;28;20042;-61
2022/09/22 05:53:06;;;;;;;5.65;2.30;;;4.50;99.90;;;;;;5078654;28;20040;-61
2022/09/22 05:55:32;;;;;;;5.30;2.50;;;4.60;99.90;;;;;;5087775;28;20036;-61
2022/09/22 05:57:59;;;;;;;3.00;2.13;;;4.60;99.90;;;;;;5079407;28;20036;-62
2022/09/22 06:00:26;;;;;;;4.07;2.38;;;4.70;99.90;;;;;;5085039;28;20028;-62
2022/09/22 06:02:51;;;;;;;3.80;2.53;;;4.70;99.90;;;;;;5080828;28;23423;-61
2022/09/22 06:05:17;;;;;;;2.60;2.30;;;4.70;99.90;;;;;;5077872;28;20036;-62
2022/09/22 06:07:43;;;;;;;4.18;2.70;;;4.80;99.90;;;;;;5081226;28;20032;-62
2022/09/22 06:10:10;;;;;;;3.28;2.58;;;4.80;99.90;;;;;;5086806;28;20035;-62
2022/09/22 06:12:36;;;;;;;4.95;3.00;;;4.80;99.90;;;;;;5080514;28;20043;-62
2022/09/22 06:15:03;;;;;;;4.72;3.53;;;4.90;99.90;;;;;;5086333;28;20115;-61
2022/09/22 06:17:29;;;;;;;5.13;3.90;;;5.00;99.90;;;;;;5079104;28;20047;-61
2022/09/22 06:19:55;;;;;;;6.32;3.70;;;5.20;99.90;;;;;;5087267;28;20475;-62
2022/09/22 06:22:22;;;;;;;6.30;4.20;;;5.30;99.90;;;;;;5081969;28;20040;-62
2022/09/22 06:24:48;;;;;;;8.57;4.32;;;5.50;99.90;;;;;;5081534;28;20131;-63
2022/09/22 06:27:13;;;;;;;5.55;4.53;;;5.70;99.90;;;;;;5079450;28;21654;-62
2022/09/22 06:29:40;;;;;;;5.80;3.72;;;5.90;99.90;;;;;;5083338;28;20066;-62
2022/09/22 06:32:09;;;;;;;6.10;3.78;;;6.10;99.90;;;;;;5083064;28;20453;-62
2022/09/22 06:34:36;;;;;;;5.07;4.22;;;6.30;99.90;;;;;;5080276;28;20058;-63
2022/09/22 06:37:03;;;;;;;5.68;4.07;;;6.50;99.90;;;;;;5085124;28;20102;-63
2022/09/22 06:39:28;;;;;;;6.20;3.90;;;6.70;99.90;;;;;;5080346;28;20630;-62
2022/09/22 06:41:59;;;;;;;6.85;4.25;;;6.90;99.90;;;;;;5078165;28;20089;-64
2022/09/22 06:44:26;;;;;;;5.30;4.30;;;7.10;99.90;;;;;;5086443;28;21806;-63
2022/09/22 06:46:51;;;;;;;5.65;4.32;;;7.40;99.90;;;;;;5087333;28;20036;-63
2022/09/22 06:49:17;;;;;;;6.30;4.72;;;7.60;99.90;;;;;;5084666;28;20612;-64
2022/09/22 06:51:43;;;;;;;8.18;4.25;;;7.90;99.90;;;;;;5080413;28;20039;-63
2022/09/22 06:54:08;;;;;;;5.38;3.70;;;8.10;99.90;;;;;;5083396;28;20064;-63
2022/09/22 06:56:41;;;;;;;5.13;4.50;;;8.40;99.90;;;;;;5086709;28;20039;-63
2022/09/22 06:59:11;;;;;;;6.65;5.63;;;8.60;99.90;;;;;;5082947;28;20047;-63
2022/09/22 07:01:42;;;;;;;8.60;6.38;;;8.90;99.90;;;;;;5076039;28;20051;-63
2022/09/22 07:04:08;;;;;;;8.32;6.80;;;9.40;99.90;;;;;;5081977;28;20169;-63
2022/09/22 07:06:36;;;;;;;9.38;7.20;;;9.80;99.90;;;;;;5087171;28;20056;-63
2022/09/22 07:09:02;;;;;;;11.02;7.15;;;10.20;99.90;;;;;;5082239;28;20043;-63
2022/09/22 07:11:28;;;;;;;11.63;7.95;;;10.60;99.90;;;;;;5085697;28;20493;-63
2022/09/22 07:13:53;;;;;;;11.60;7.38;;;11.00;99.90;;;;;;5090388;28;20037;-63
2022/09/22 07:16:21;;;;;;;12.75;7.70;;;11.20;99.90;;;;;;5089731;28;20040;-63
2022/09/22 07:18:53;;;;;;;9.90;7.78;;;11.50;99.90;;;;;;5089724;28;20471;-64
2022/09/22 07:21:26;;;;;;;9.23;7.60;;;11.70;99.90;;;;;;5093377;28;20537;-64
2022/09/22 07:23:56;;;;;;;10.55;7.80;;;11.90;99.90;;;;;;5086101;28;20123;-64
2022/09/22 07:26:29;;;;;;;10.05;8.65;;;12.10;99.90;;;;;;5090124;28;20040;-64
2022/09/22 07:28:58;;;;;;;12.77;8.77;;;12.20;99.90;;;;;;5094309;28;20119;-64
2022/09/22 07:31:25;;;;;;;12.25;8.43;;;12.40;99.90;;;;;;5093443;28;20523;-64
2022/09/22 07:33:52;;;;;;;13.20;8.50;;;12.40;99.90;;;;;;5092834;28;20442;-64
2022/09/22 07:36:20;;;;;;;11.15;8.57;;;12.40;99.90;;;;;;5091359;28;20090;-64
2022/09/22 07:38:48;;;;;;;10.88;8.10;;;12.40;99.90;;;;;;5092184;28;20467;-63
2022/09/22 07:41:17;;;;;;;12.30;8.15;;;12.40;99.90;;;;;;5094914;28;20159;-64
2022/09/22 07:43:44;;;;;;;10.27;7.93;;;12.30;99.90;;;;;;5091900;28;20039;-64
2022/09/22 07:46:11;;;;;;;10.88;7.88;;;12.30;99.90;;;;;;5086260;28;20039;-64
2022/09/22 07:48:42;;;;;;;10.13;7.50;;;12.30;99.90;;;;;;5100909;28;20047;-64
2022/09/22 07:51:20;;;;;;;11.27;8.27;;;12.30;99.90;;;;;;5093075;28;20036;-64
2022/09/22 07:54:29;;;;;;;10.05;7.95;;;12.20;99.90;;;;;;5078733;28;20071;-62
2022/09/22 07:56:48;;;;;;;11.63;8.65;;;12.30;99.90;;;;;;5084660;28;20044;-64
2022/09/22 07:59:15;;;;;;;11.77;8.48;;;12.30;99.90;;;;;;5084702;28;20044;-64
2022/09/22 08:01:43;;;;;;;9.27;7.55;;;12.30;99.90;;;;;;5101219;27;20115;-63
2022/09/22 08:04:15;;;;;;;12.25;8.13;;;12.30;99.90;;;;;;5090753;28;20048;-63
2022/09/22 08:06:45;;;;;;;9.98;7.95;;;12.40;99.90;;;;;;5090006;28;20084;-64
2022/09/22 08:09:12;;;;;;;8.90;6.63;;;12.50;99.90;;;;;;5086813;28;20040;-63
2022/09/22 08:11:39;;;;;;;9.32;6.95;;;12.50;99.90;;;;;;5090023;28;20048;-63
2022/09/22 08:14:07;;;;;;;8.55;6.68;;;12.60;99.90;;;;;;5088701;28;20134;-63
2022/09/22 08:16:35;;;;;;;10.00;7.65;;;12.80;99.90;;;;;;5091550;28;20032;-63
2022/09/22 08:19:04;;;;;;;8.15;6.40;;;12.90;99.90;;;;;;5090715;28;20093;-62
2022/09/22 08:21:34;;;;;;;9.35;6.60;;;13.20;99.90;;;;;;5090831;28;20036;-63
2022/09/22 08:24:04;;;;;;;9.18;7.10;;;13.30;99.90;;;;;;5088613;28;20081;-63
2022/09/22 08:26:30;;;;;;;10.45;6.75;;;13.30;99.90;;;;;;5091741;28;20024;-63
2022/09/22 08:28:56;;;;;;;10.43;7.35;;;13.40;99.90;;;;;;5088344;28;20112;-64
2022/09/22 08:31:24;;;;;;;9.32;7.22;;;13.50;99.90;;;;;;5088670;28;20084;-63
2022/09/22 08:33:53;;;;;;;8.65;7.07;;;13.70;99.90;;;;;;5091511;28;20048;-64
2022/09/22 08:36:19;;;;;;;9.77;6.15;;;13.80;99.90;;;;;;5091893;28;20074;-62
2022/09/22 08:38:47;;;;;;;8.68;5.28;;;14.00;99.90;;;;;;5090721;28;20040;-64
2022/09/22 08:41:25;;;;;;;7.80;5.63;;;14.10;99.90;;;;;;5091400;28;20035;-64
2022/09/22 08:43:57;;;;;;;10.63;5.63;;;14.20;99.90;;;;;;5090983;28;20170;-64
2022/09/22 08:46:32;;;;;;;7.47;4.47;;;14.60;99.90;;;;;;5090464;28;20043;-64
2022/09/22 08:52:48;;;;;;;9.18;6.47;;;14.70;99.90;;;;;;5091169;28;20551;-63
2022/09/22 08:55:22;;;;;;;9.63;6.65;;;14.90;99.90;;;;;;5074679;28;20066;-63
2022/09/22 08:58:07;;;;;;;7.57;6.25;;;15.00;99.90;;;;;;5090237;28;20048;-63
2022/09/22 09:00:40;;;;;;;6.05;5.00;;;14.90;99.90;;;;;;5091040;28;20032;-63
2022/09/22 09:03:35;;;;;;;6.13;3.72;;;15.00;99.90;;;;;;5055171;28;1034845;-64
2022/09/22 09:06:14;;;;;;;7.10;3.17;;;15.00;99.90;;;;;;5089072;28;20051;-64
2022/09/22 09:08:49;;;;;;;8.88;3.60;;;15.00;99.90;;;;;;5089911;28;20055;-64
2022/09/22 09:11:59;;;;;;;6.65;3.20;;;15.10;99.90;;;;;;5091106;28;20036;-64
2022/09/22 09:14:53;;;;;;;4.95;3.05;;;15.10;99.90;;;;;;5092574;28;20459;-63
2022/09/22 09:17:28;;;;;;;4.88;2.88;;;15.30;99.70;;;;;;5094360;28;20040;-63
2022/09/22 09:20:18;;;;;;;6.18;2.63;;;15.30;98.80;;;;;;5072354;28;20065;-63
2022/09/22 09:22:54;;;;;;;3.72;2.90;;;15.40;97.00;;;;;;5091726;28;20052;-64
2022/09/22 09:25:34;;;;;;;3.85;2.65;;;15.40;96.20;;;;;;5090181;28;20540;-64
2022/09/22 09:28:17;;;;;;;4.78;2.90;;;15.40;96.80;;;;;;5091017;28;20635;-62
2022/09/22 09:30:50;;;;;;;5.78;2.47;;;15.40;95.40;;;;;;5090168;28;20044;-63
2022/09/22 09:33:39;;;;;;;3.95;2.42;;;15.50;96.50;;;;;;5088578;28;20081;-63
2022/09/22 09:36:13;;;;;;;7.80;2.47;;;15.60;95.60;;;;;;5090858;28;20032;-62
2022/09/22 09:38:45;;;;;;;4.20;2.20;;;15.80;95.40;;;;;;5090717;28;20040;-63
2022/09/22 09:41:16;;;;;;;6.97;2.47;;;15.80;95.70;;;;;;5089119;28;20116;-63
2022/09/22 09:43:44;;;;;;;4.78;2.70;;;15.80;94.10;;;;;;5090588;28;20493;-64
2022/09/22 09:46:40;;;;;;;9.25;2.92;;;15.90;95.70;;;;;;5090399;28;20089;-63
2022/09/22 09:49:13;;;;;;;7.50;2.00;;;15.90;95.20;;;;;;5073605;28;20034;-63
2022/09/22 09:51:43;;;;;;;4.45;2.42;;;16.10;95.80;;;;;;5084154;28;20101;-64
2022/09/22 09:54:12;;;;;;;4.50;2.50;;;16.30;95.50;;;;;;5076129;28;20040;-64
2022/09/22 09:57:00;;;;;;;4.60;1.90;;;16.20;94.00;;;;;;5091211;28;20032;-63
2022/09/22 10:02:14;;;;;;;3.25;1.50;;;16.20;95.00;;;;;;5091021;28;20422;-64
2022/09/22 10:04:47;;;;;;;7.70;2.17;;;16.40;93.50;;;;;;5088910;28;20058;-64
2022/09/22 10:07:22;;;;;;;8.27;2.30;;;16.60;93.00;;;;;;5088762;28;20035;-63
2022/09/22 10:09:49;;;;;;;7.10;2.17;;;16.30;88.70;;;;;;5088193;28;20040;-64
2022/09/22 10:12:29;;;;;;;4.07;1.77;;;16.40;89.30;;;;;;5090833;28;20048;-64
2022/09/22 10:14:57;;;;;;;6.70;2.05;;;16.50;91.30;;;;;;5091756;28;20067;-63
2022/09/22 10:17:26;;;;;;;3.22;2.28;;;16.60;92.00;;;;;;5089653;28;20044;-62
2022/09/22 10:19:52;;;;;;;5.07;2.40;;;16.60;87.70;;;;;;5087342;28;20033;-63
2022/09/22 10:22:26;;;;;;;4.88;2.10;;;16.50;86.00;;;;;;5087917;28;20032;-63
2022/09/22 10:24:57;;;;;;;4.50;2.30;;;16.60;79.00;;;;;;5086399;28;20048;-64
2022/09/22 10:27:25;;;;;;;3.90;1.73;;;16.70;83.40;;;;;;5085954;28;20046;-63
2022/09/22 10:30:28;;;;;;;7.90;1.90;;;16.60;88.40;;;;;;5090163;28;20471;-63
2022/09/22 10:33:02;;;;;;;4.13;1.65;;;16.80;83.30;;;;;;5048726;28;20493;-62
2022/09/22 10:35:30;;;;;;;6.03;2.00;;;16.80;82.20;;;;;;5081700;28;20040;-64
2022/09/22 10:37:57;;;;;;;4.40;1.98;;;17.00;82.30;;;;;;5089083;28;20111;-64
2022/09/22 10:40:24;;;;;;;2.97;1.60;;;17.00;86.60;;;;;;5091180;28;20066;-64
2022/09/22 10:42:53;;;;;;;3.78;2.00;;;17.10;87.10;;;;;;5080030;28;20044;-64
2022/09/22 10:45:27;;;;;;;4.93;2.00;;;17.00;86.00;;;;;;5071927;28;20396;-64
2022/09/22 10:47:58;;;;;;;3.15;1.77;;;17.00;84.70;;;;;;5072374;28;20133;-64
2022/09/22 10:51:01;;;;;;;3.83;1.70;;;17.10;79.30;;;;;;5070905;28;20476;-64
2022/09/22 10:53:41;;;;;;;4.63;1.73;;;17.30;84.20;;;;;;5070643;28;20075;-64
2022/09/22 10:56:29;;;;;;;6.38;2.17;;;17.40;85.50;;;;;;5089054;28;20036;-64
2022/09/22 10:59:19;;;;;;;5.78;2.30;;;17.40;76.30;;;;;;5091848;28;20071;-64
2022/09/22 11:02:07;;;;;;;5.35;2.47;;;17.30;81.40;;;;;;5092449;28;20036;-65
2022/09/22 11:04:53;;;;;;;3.47;2.22;;;17.40;81.40;;;;;;5089759;28;20109;-65
2022/09/22 11:14:01;;;;;;;6.13;3.30;;;17.50;77.40;;;;;;5067205;28;20067;-63
2022/09/22 11:16:58;;;;;;;8.93;3.55;;;17.60;75.70;;;;;;5076530;28;20413;-63
2022/09/22 11:19:42;;;;;;;5.30;3.38;;;17.60;69.50;;;;;;5080339;28;20047;-64
2022/09/22 11:22:38;;;;;;;8.00;2.88;;;17.60;74.40;;;;;;5091331;28;20093;-64
2022/09/22 11:25:25;;;;;;;7.25;3.47;;;17.60;73.00;;;;;;5087249;28;20068;-64
2022/09/22 11:28:04;;;;;;;5.45;3.20;;;17.70;71.40;;;;;;5090192;28;20040;-64
2022/09/22 11:30:38;;;;;;;6.10;3.40;;;17.60;71.50;;;;;;5089025;28;20039;-64
2022/09/22 11:33:08;;;;;;;6.78;3.60;;;17.40;70.30;;;;;;5086793;28;20055;-64
2022/09/22 11:35:48;;;;;;;4.75;2.97;;;17.50;74.40;;;;;;5086648;28;20044;-64
2022/09/22 11:38:38;;;;;;;6.07;3.20;;;17.60;75.00;;;;;;5089315;28;20066;-64
2022/09/22 11:41:20;;;;;;;5.75;3.25;;;17.80;73.70;;;;;;5086844;28;20294;-64
2022/09/22 11:44:10;;;;;;;5.80;3.45;;;18.00;75.00;;;;;;5088998;28;20115;-65
2022/09/22 11:46:55;;;;;;;4.78;3.78;;;18.10;73.50;;;;;;5090533;28;20093;-64
2022/09/22 11:49:41;;;;;;;8.95;3.83;;;18.20;72.10;;;;;;5085730;28;20046;-64
2022/09/22 11:52:42;;;;;;;5.28;3.53;;;18.20;68.00;;;;;;5081584;28;20402;-64
2022/09/22 11:55:24;;;;;;;7.60;3.80;;;18.20;69.60;;;;;;5080844;28;20041;-63
2022/09/22 11:57:54;;;;;;;4.60;3.22;;;18.20;71.60;;;;;;5092615;28;20048;-63
2022/09/22 12:00:20;;;;;;;;;;;18.30;70.40;;;;;;5091437;28;20039;-64
2022/09/22 12:02:48;;;;;;;8.35;4.50;;;18.20;64.60;;;;;;5093311;28;19920;-63
2022/09/22 12:05:25;;;;;;;6.55;3.88;;;17.90;67.40;;;;;;5091741;28;20051;-63
2022/09/22 12:08:00;;;;;;;7.75;4.57;;;17.90;69.80;;;;;;5093009;28;20105;-63
2022/09/22 12:10:36;;;;;;;8.15;4.50;;;18.00;68.60;;;;;;5091835;28;20119;-64
2022/09/22 12:13:05;;;;;;;5.25;4.15;;;18.10;67.70;;;;;;5093585;28;20097;-64
2022/09/22 12:15:38;;;;;;;7.25;3.83;;;18.20;69.20;;;;;;5092985;28;20036;-64
2022/09/22 12:18:12;;;;;;;7.28;3.88;;;18.20;69.40;;;;;;5088720;28;20071;-64
2022/09/22 12:21:00;;;;;;;8.00;5.25;;;18.20;68.60;;;;;;5089260;28;20043;-63
2022/09/22 12:23:48;;;;;;;5.20;3.50;;;17.90;62.90;;;;;;5093759;28;20043;-64
2022/09/22 12:26:29;;;;;;;10.32;3.88;;;17.80;68.70;;;;;;5090932;28;20040;-65
2022/09/22 12:28:57;;;;;;;6.65;2.72;;;17.90;68.10;;;;;;5092403;28;20032;-65
2022/09/22 12:31:33;;;;;;;5.05;3.30;;;18.20;70.30;;;;;;5091899;28;20506;-64
2022/09/22 12:34:00;;;;;;;6.57;4.20;;;18.40;69.80;;;;;;5092592;28;20605;-64
2022/09/22 12:36:37;;;;;;;3.80;3.25;;;18.60;70.10;;;;;;5092006;28;20467;-62
2022/09/22 12:39:24;;;;;;;5.55;3.80;;;18.50;65.80;;;;;;5091808;28;20051;-64
2022/09/22 12:41:57;;;;;;;6.22;3.75;;;18.50;63.20;;;;;;5091732;28;20032;-64
2022/09/22 12:44:33;;;;;;;5.90;4.20;;;18.30;66.90;;;;;;5092311;28;20043;-63
2022/09/22 12:47:34;;;;;;;5.95;3.65;;;18.10;65.40;;;;;;5093461;28;20048;-65
2022/09/22 12:50:05;;;;;;;6.43;3.97;;;17.90;66.80;;;;;;5075145;28;20048;-64
2022/09/22 12:52:40;;;;;;;5.53;3.78;;;19.10;63.00;;;;;;5093279;28;20082;-64
2022/09/22 12:55:37;;;;;;;5.82;3.88;;;20.30;61.40;;;;;;5092132;28;20040;-63
2022/09/22 12:58:23;;;;;;;7.03;4.45;;;20.40;61.20;;;;;;5092994;28;20036;-62
2022/09/22 13:00:50;;;;;;;7.40;3.85;;;20.40;60.00;;;;;;5089098;28;20040;-65
2022/09/22 13:03:25;;;;;;;7.95;4.13;;;19.90;61.00;;;;;;5091839;28;20414;-64
2022/09/22 13:05:57;;;;;;;6.22;4.00;;;19.80;60.50;;;;;;5076724;28;20162;-64
2022/09/22 13:08:31;;;;;;;8.18;4.05;;;19.50;61.00;;;;;;5090409;28;20082;-64
2022/09/22 13:11:06;;;;;;;6.28;3.25;;;19.60;59.80;;;;;;5090142;28;20044;-63
2022/09/22 13:13:46;;;;;;;5.72;3.67;;;19.80;59.50;;;;;;5090086;28;20042;-64
2022/09/22 13:16:14;;;;;;;6.95;3.53;;;19.50;59.00;;;;;;5090411;28;20082;-63
2022/09/22 13:18:42;;;;;;;5.97;3.63;;;18.90;59.00;;;;;;5087758;28;20044;-64
2022/09/22 13:21:11;;;;;;;8.15;4.75;;;19.10;61.30;;;;;;5092255;28;20036;-63
2022/09/22 13:24:01;;;;;;;7.63;3.95;;;19.00;59.30;;;;;;5092217;28;20044;-65
2022/09/22 13:26:31;;;;;;;;;;;18.80;61.60;;;;;;5072886;28;20083;-64
2022/09/22 13:29:16;;;;;;;7.13;4.17;;;18.40;61.00;;;;;;5075679;28;19935;-64
2022/09/22 13:31:44;;;;;;;9.50;3.40;;;18.20;63.40;;;;;;5090703;28;20036;-64